Time;durP1;ratioP1;P1;durP2;ratioP2;P2;SDS_P1;SDS_P2;PMS_P1;PMS_P2;Temp;Humidity;BMP_temperature;BMP_pressure;BME280_temperature;BME280_humidity;BME280_pressure;Samples;Min_cycle;Max_cycle;Signal;HPM_P1;HPM_P2
2022/05/12 00:00:20;;;;;;;5.13;4.72;;;;;;;;;;5084865;28;24428;-45
2022/05/12 00:02:46;;;;;;;4.90;4.50;;;;;;;;;;5081591;28;24794;-45
2022/05/12 00:05:11;;;;;;;5.22;4.82;;;;;;;;;;5083351;28;24426;-45
2022/05/12 00:07:37;;;;;;;4.57;4.27;;;;;;;;;;5082807;28;24527;-45
2022/05/12 00:10:02;;;;;;;5.93;4.30;;;;;;;;;;5083278;28;24457;-45
2022/05/12 00:12:27;;;;;;;5.10;4.70;;;;;;;;;;5083654;28;24509;-45
2022/05/12 00:14:53;;;;;;;4.93;4.63;;;;;;;;;;5081795;28;24480;-44
2022/05/12 00:17:18;;;;;;;4.70;4.30;;;;;;;;;;5085744;28;24812;-44
2022/05/12 00:19:43;;;;;;;4.80;4.40;;;;;;;;;;5079848;28;24498;-45
2022/05/12 00:22:08;;;;;;;4.88;4.40;;;;;;;;;;5085160;28;24475;-45
2022/05/12 00:24:33;;;;;;;4.85;4.55;;;;;;;;;;5079449;28;25044;-45
2022/05/12 00:26:58;;;;;;;4.95;4.55;;;;;;;;;;5085038;28;24506;-44
2022/05/12 00:29:25;;;;;;;4.90;4.60;;;;;;;;;;5082666;28;24418;-44
2022/05/12 00:31:50;;;;;;;4.90;4.50;;;;;;;;;;5083071;28;24717;-46
2022/05/12 00:34:16;;;;;;;6.10;5.50;;;;;;;;;;5083503;28;25043;-44
2022/05/12 00:36:42;;;;;;;4.90;4.50;;;;;;;;;;5083324;28;24414;-44
2022/05/12 00:39:07;;;;;;;4.80;4.40;;;;;;;;;;5082487;28;24495;-44
2022/05/12 00:41:33;;;;;;;4.20;3.90;;;;;;;;;;5085046;28;24815;-45
2022/05/12 00:44:02;;;;;;;4.40;4.10;;;;;;;;;;5083630;28;24526;-45
2022/05/12 00:46:28;;;;;;;4.50;4.10;;;;;;;;;;5082042;28;24475;-45
2022/05/12 00:48:56;;;;;;;5.33;4.30;;;;;;;;;;5082741;28;25113;-45
2022/05/12 00:51:26;;;;;;;4.75;4.35;;;;;;;;;;5086456;28;24422;-45
2022/05/12 00:53:53;;;;;;;4.90;4.50;;;;;;;;;;5083244;28;24561;-45
2022/05/12 00:56:20;;;;;;;4.10;3.70;;;;;;;;;;5073181;28;24517;-45
2022/05/12 00:58:48;;;;;;;4.43;4.03;;;;;;;;;;5085485;28;24448;-45
2022/05/12 01:01:13;;;;;;;4.50;4.10;;;;;;;;;;5087922;28;24421;-45
2022/05/12 01:03:41;;;;;;;4.82;4.15;;;;;;;;;;5086972;28;24433;-45
2022/05/12 01:06:07;;;;;;;4.00;3.60;;;;;;;;;;5083950;28;24426;-45
2022/05/12 01:08:33;;;;;;;4.22;3.90;;;;;;;;;;5085607;28;25085;-45
2022/05/12 01:11:00;;;;;;;4.20;3.90;;;;;;;;;;5084312;28;24437;-45
2022/05/12 01:13:26;;;;;;;4.15;3.85;;;;;;;;;;5080620;28;24434;-45
2022/05/12 01:15:54;;;;;;;3.50;3.30;;;;;;;;;;5085910;28;24429;-45
2022/05/12 01:18:19;;;;;;;4.00;3.70;;;;;;;;;;5082232;28;24465;-45
2022/05/12 01:20:46;;;;;;;4.30;3.90;;;;;;;;;;5083892;28;24417;-45
2022/05/12 01:23:30;;;;;;;4.47;4.18;;;;;;;;;;5085808;28;25196;-45
2022/05/12 01:26:04;;;;;;;4.15;3.85;;;;;;;;;;5083248;28;24450;-44
2022/05/12 01:28:30;;;;;;;4.30;3.90;;;;;;;;;;5080455;28;24425;-44
2022/05/12 01:30:55;;;;;;;3.88;3.58;;;;;;;;;;5085788;28;24461;-44
2022/05/12 01:33:21;;;;;;;4.33;3.97;;;;;;;;;;5087527;28;24944;-45
2022/05/12 01:35:46;;;;;;;3.90;3.60;;;;;;;;;;5087893;28;24425;-45
2022/05/12 01:38:13;;;;;;;4.00;3.70;;;;;;;;;;5084591;28;24438;-45
2022/05/12 01:40:38;;;;;;;4.05;3.75;;;;;;;;;;5087085;28;25015;-45
2022/05/12 01:43:04;;;;;;;4.00;3.60;;;;;;;;;;5084346;28;24541;-45
2022/05/12 01:45:29;;;;;;;3.92;3.55;;;;;;;;;;5081655;28;24801;-46
2022/05/12 01:47:54;;;;;;;4.13;3.67;;;;;;;;;;5082159;28;24468;-45
2022/05/12 01:50:20;;;;;;;4.60;4.30;;;;;;;;;;5081395;28;24419;-46
2022/05/12 01:52:45;;;;;;;4.00;3.70;;;;;;;;;;5087115;28;25021;-45
2022/05/12 01:55:11;;;;;;;4.50;4.20;;;;;;;;;;5084107;28;24531;-45
2022/05/12 01:57:36;;;;;;;4.10;3.75;;;;;;;;;;5083526;28;24532;-44
2022/05/12 02:00:03;;;;;;;4.20;3.90;;;;;;;;;;5084935;28;25114;-45
2022/05/12 02:02:28;;;;;;;4.10;3.70;;;;;;;;;;5084819;28;24509;-45
2022/05/12 02:04:53;;;;;;;4.57;4.17;;;;;;;;;;5086695;28;24556;-45
2022/05/12 02:07:18;;;;;;;4.93;3.73;;;;;;;;;;5084371;28;24823;-45
2022/05/12 02:09:44;;;;;;;5.20;4.70;;;;;;;;;;5087347;28;24428;-45
2022/05/12 02:12:09;;;;;;;5.20;4.50;;;;;;;;;;5082740;28;24457;-45
2022/05/12 02:14:35;;;;;;;4.18;3.88;;;;;;;;;;5085858;28;24879;-45
2022/05/12 02:17:00;;;;;;;4.30;3.90;;;;;;;;;;5085415;28;24496;-45
2022/05/12 02:19:27;;;;;;;4.65;4.00;;;;;;;;;;5083893;28;24471;-45
2022/05/12 02:21:54;;;;;;;4.63;3.80;;;;;;;;;;5084802;28;24411;-45
2022/05/12 02:24:19;;;;;;;4.60;3.97;;;;;;;;;;5084627;28;24994;-45
2022/05/12 02:26:45;;;;;;;4.07;3.78;;;;;;;;;;5080461;28;24426;-45
2022/05/12 02:29:10;;;;;;;5.00;3.70;;;;;;;;;;5075454;28;24872;-45
2022/05/12 02:31:35;;;;;;;4.15;3.85;;;;;;;;;;5083329;28;24500;-45
2022/05/12 02:34:00;;;;;;;4.20;3.80;;;;;;;;;;5086609;28;24434;-45
2022/05/12 02:36:25;;;;;;;3.92;3.63;;;;;;;;;;5082712;28;24592;-45
2022/05/12 02:38:50;;;;;;;4.13;3.80;;;;;;;;;;5082561;28;24484;-45
2022/05/12 02:41:16;;;;;;;3.90;3.60;;;;;;;;;;5085635;28;24433;-45
2022/05/12 02:43:41;;;;;;;4.03;3.63;;;;;;;;;;5080765;28;24422;-46
2022/05/12 02:46:08;;;;;;;4.10;3.70;;;;;;;;;;5081797;28;25023;-44
2022/05/12 02:48:34;;;;;;;3.85;3.55;;;;;;;;;;5082756;28;24867;-45
2022/05/12 02:50:59;;;;;;;4.23;3.90;;;;;;;;;;5080940;28;24430;-45
2022/05/12 02:53:25;;;;;;;4.40;4.10;;;;;;;;;;5084615;28;24437;-44
2022/05/12 02:55:50;;;;;;;4.50;3.80;;;;;;;;;;5084836;28;24491;-45
2022/05/12 02:58:16;;;;;;;5.40;3.60;;;;;;;;;;5085484;28;24448;-44
2022/05/12 03:00:41;;;;;;;3.70;3.40;;;;;;;;;;5082530;28;24410;-44
2022/05/12 03:03:07;;;;;;;4.63;3.80;;;;;;;;;;5080173;28;24525;-45
2022/05/12 03:05:32;;;;;;;4.50;3.70;;;;;;;;;;5085750;28;24434;-44
2022/05/12 03:07:57;;;;;;;4.20;3.55;;;;;;;;;;5084233;28;24952;-45
2022/05/12 03:10:23;;;;;;;4.10;3.70;;;;;;;;;;5084240;28;24482;-44
2022/05/12 03:12:48;;;;;;;4.20;3.90;;;;;;;;;;5081991;28;24517;-45
2022/05/12 03:15:13;;;;;;;3.97;3.57;;;;;;;;;;5078654;28;24430;-45
2022/05/12 03:17:39;;;;;;;4.30;3.80;;;;;;;;;;5081249;28;24448;-44
2022/05/12 03:20:06;;;;;;;3.63;3.13;;;;;;;;;;5086369;28;25043;-45
2022/05/12 03:22:31;;;;;;;4.38;3.97;;;;;;;;;;5081549;28;24426;-44
2022/05/12 03:24:56;;;;;;;3.85;3.55;;;;;;;;;;5082242;28;24931;-45
2022/05/12 03:27:22;;;;;;;3.90;3.60;;;;;;;;;;5085465;28;24439;-45
2022/05/12 03:29:47;;;;;;;4.53;4.00;;;;;;;;;;5079577;28;24566;-45
2022/05/12 03:32:12;;;;;;;4.75;4.00;;;;;;;;;;5079695;28;24457;-45
2022/05/12 03:34:39;;;;;;;4.20;3.80;;;;;;;;;;5082242;28;24968;-45
2022/05/12 03:37:04;;;;;;;4.40;4.00;;;;;;;;;;5084395;28;24414;-45
2022/05/12 03:39:29;;;;;;;4.50;3.60;;;;;;;;;;5083383;28;24425;-45
2022/05/12 03:41:55;;;;;;;4.20;3.80;;;;;;;;;;5078305;28;24467;-46
2022/05/12 03:47:04;;;;;;;3.92;3.40;;;;;;;;;;5080877;28;24459;-45
2022/05/12 03:49:29;;;;;;;4.30;3.87;;;;;;;;;;5082523;28;24434;-45
2022/05/12 03:51:54;;;;;;;5.15;4.07;;;;;;;;;;5080848;28;24784;-46
2022/05/12 03:54:19;;;;;;;4.00;3.60;;;;;;;;;;5082386;28;25067;-45
2022/05/12 03:56:44;;;;;;;3.60;3.30;;;;;;;;;;5084872;28;24585;-44
2022/05/12 03:59:10;;;;;;;6.20;3.88;;;;;;;;;;5081180;28;24461;-44
2022/05/12 04:01:35;;;;;;;4.60;4.00;;;;;;;;;;5078801;28;25005;-44
2022/05/12 04:04:00;;;;;;;4.30;3.90;;;;;;;;;;5081351;28;24456;-45
2022/05/12 04:06:25;;;;;;;4.97;3.87;;;;;;;;;;5079812;28;24429;-45
2022/05/12 04:08:51;;;;;;;4.00;3.60;;;;;;;;;;5083880;28;24535;-45
2022/05/12 04:11:16;;;;;;;4.50;4.20;;;;;;;;;;5086809;28;24410;-45
2022/05/12 04:13:43;;;;;;;4.30;3.90;;;;;;;;;;5084867;28;24430;-45
2022/05/12 04:16:08;;;;;;;4.72;3.80;;;;;;;;;;5081512;28;24418;-45
2022/05/12 04:18:33;;;;;;;4.03;3.72;;;;;;;;;;5075779;28;24426;-45
2022/05/12 04:20:58;;;;;;;4.80;3.72;;;;;;;;;;5076301;28;24525;-45
2022/05/12 04:23:24;;;;;;;3.90;3.60;;;;;;;;;;5077576;28;24425;-45
2022/05/12 04:25:49;;;;;;;3.70;3.40;;;;;;;;;;5085331;28;24974;-45
2022/05/12 04:28:14;;;;;;;4.28;3.50;;;;;;;;;;5083435;28;24520;-45
2022/05/12 04:30:39;;;;;;;4.30;3.30;;;;;;;;;;5084951;28;24434;-45
2022/05/12 04:35:48;;;;;;;4.72;3.40;;;;;;;;;;5084752;28;24436;-45
2022/05/12 04:38:13;;;;;;;3.77;3.47;;;;;;;;;;5080615;28;24422;-45
2022/05/12 04:40:39;;;;;;;4.83;2.97;;;;;;;;;;5081009;28;24784;-45
2022/05/12 04:43:04;;;;;;;4.05;3.30;;;;;;;;;;5083888;28;24520;-46
2022/05/12 04:45:31;;;;;;;5.70;3.50;;;;;;;;;;5085033;28;24426;-46
2022/05/12 04:47:56;;;;;;;4.45;3.50;;;;;;;;;;5072890;28;24434;-45
2022/05/12 04:50:24;;;;;;;5.30;3.40;;;;;;;;;;5079362;28;24441;-45
2022/05/12 04:52:50;;;;;;;7.20;3.80;;;;;;;;;;5080459;28;24521;-45
2022/05/12 04:55:16;;;;;;;9.17;4.30;;;;;;;;;;5084276;28;24506;-45
2022/05/12 04:57:42;;;;;;;7.43;4.13;;;;;;;;;;5082071;28;24529;-45
2022/05/12 05:00:10;;;;;;;6.30;3.77;;;;;;;;;;5080876;28;25313;-45
2022/05/12 05:02:35;;;;;;;5.70;4.03;;;;;;;;;;5076384;28;24517;-45
2022/05/12 05:05:01;;;;;;;8.60;3.97;;;;;;;;;;5077865;28;24513;-45
2022/05/12 05:07:26;;;;;;;4.20;3.80;;;;;;;;;;5079195;28;24784;-45
2022/05/12 05:09:52;;;;;;;4.93;3.85;;;;;;;;;;5084979;28;24509;-44
2022/05/12 05:12:17;;;;;;;5.00;4.00;;;;;;;;;;5085843;28;24434;-45
2022/05/12 05:14:42;;;;;;;6.50;3.90;;;;;;;;;;5074948;28;25136;-44
2022/05/12 05:17:07;;;;;;;4.10;3.67;;;;;;;;;;5078690;28;24425;-45
2022/05/12 05:19:32;;;;;;;9.27;4.40;;;;;;;;;;5081320;28;24430;-45
2022/05/12 05:21:57;;;;;;;3.70;3.17;;;;;;;;;;5082208;28;24975;-45
2022/05/12 05:24:23;;;;;;;5.95;3.67;;;;;;;;;;5076882;28;24445;-45
2022/05/12 05:26:48;;;;;;;5.38;3.50;;;;;;;;;;5071975;28;24516;-46
2022/05/12 05:29:13;;;;;;;3.50;3.10;;;;;;;;;;5087812;28;24990;-45
2022/05/12 05:31:39;;;;;;;5.70;3.30;;;;;;;;;;5089015;28;24480;-45
2022/05/12 05:34:04;;;;;;;5.28;3.10;;;;;;;;;;5086871;28;24955;-45
2022/05/12 05:36:30;;;;;;;3.78;3.47;;;;;;;;;;5087379;28;24785;-45
2022/05/12 05:38:55;;;;;;;5.40;3.40;;;;;;;;;;5084625;28;24425;-45
2022/05/12 05:41:20;;;;;;;4.40;3.33;;;;;;;;;;5088712;28;24406;-45
2022/05/12 05:43:45;;;;;;;3.65;2.83;;;;;;;;;;5085996;28;24460;-45
2022/05/12 05:46:10;;;;;;;4.77;3.40;;;;;;;;;;5088853;28;24394;-45
2022/05/12 05:48:36;;;;;;;5.88;3.10;;;;;;;;;;5079933;28;24837;-45
2022/05/12 05:53:44;;;;;;;4.03;3.50;;;;;;;;;;5084830;28;24536;-44
2022/05/12 05:56:15;;;;;;;3.38;2.70;;;;;;;;;;5081584;28;25019;-45
2022/05/12 05:58:40;;;;;;;3.90;3.10;;;;;;;;;;5083245;28;24442;-45
2022/05/12 06:01:05;;;;;;;3.17;2.87;;;;;;;;;;5084561;28;24947;-45
2022/05/12 06:03:30;;;;;;;4.25;2.60;;;;;;;;;;5078636;28;25196;-45
2022/05/12 06:05:56;;;;;;;5.90;3.08;;;;;;;;;;5082975;28;24492;-45
2022/05/12 06:08:22;;;;;;;3.83;2.60;;;;;;;;;;5084886;28;24456;-45
2022/05/12 06:10:47;;;;;;;6.03;2.95;;;;;;;;;;5080205;28;24426;-45
2022/05/12 06:13:12;;;;;;;5.15;3.20;;;;;;;;;;5083873;28;24441;-45
2022/05/12 06:15:38;;;;;;;4.73;3.00;;;;;;;;;;5084866;28;25009;-45
2022/05/12 06:18:07;;;;;;;5.78;3.00;;;;;;;;;;5082158;28;24467;-46
2022/05/12 06:20:33;;;;;;;3.30;2.80;;;;;;;;;;5083094;28;24834;-44
2022/05/12 06:22:58;;;;;;;5.22;2.78;;;;;;;;;;5085353;28;24510;-45
2022/05/12 06:25:23;;;;;;;3.80;2.70;;;;;;;;;;5085262;28;24442;-44
2022/05/12 06:27:48;;;;;;;5.27;3.27;;;;;;;;;;5086389;28;24521;-44
2022/05/12 06:30:14;;;;;;;3.30;2.70;;;;;;;;;;5085875;28;24454;-45
2022/05/12 06:32:40;;;;;;;3.67;2.50;;;;;;;;;;5082722;28;24988;-45
2022/05/12 06:35:06;;;;;;;3.70;2.70;;;;;;;;;;5085682;28;24569;-44
2022/05/12 06:37:32;;;;;;;4.40;2.58;;;;;;;;;;5083513;28;24505;-44
2022/05/12 06:39:57;;;;;;;5.15;3.60;;;;;;;;;;5087573;28;24872;-44
2022/05/12 06:42:22;;;;;;;3.60;2.78;;;;;;;;;;5083179;28;24491;-44
2022/05/12 06:44:48;;;;;;;4.40;2.90;;;;;;;;;;5084563;28;24761;-45
2022/05/12 06:47:15;;;;;;;2.85;2.50;;;;;;;;;;5084306;28;24410;-45
2022/05/12 06:49:41;;;;;;;5.90;2.97;;;;;;;;;;5077823;28;24987;-44
2022/05/12 06:52:06;;;;;;;3.87;2.80;;;;;;;;;;5073588;28;24426;-44
2022/05/12 06:54:35;;;;;;;3.43;2.40;;;;;;;;;;5086984;28;25088;-45
2022/05/12 06:57:00;;;;;;;3.72;2.08;;;;;;;;;;5087389;28;24382;-45
2022/05/12 06:59:26;;;;;;;3.03;1.90;;;;;;;;;;5070987;28;24444;-45
2022/05/12 07:01:51;;;;;;;5.05;1.70;;;;;;;;;;5065427;28;24406;-45
2022/05/12 07:04:16;;;;;;;8.17;2.00;;;;;;;;;;5087218;28;24460;-45
2022/05/12 07:06:41;;;;;;;1.50;1.30;;;;;;;;;;5086918;28;24955;-45
2022/05/12 07:09:06;;;;;;;3.53;1.40;;;;;;;;;;5077111;28;24983;-45
2022/05/12 07:11:31;;;;;;;4.50;1.48;;;;;;;;;;5065472;28;24391;-45
2022/05/12 07:13:57;;;;;;;2.23;1.30;;;;;;;;;;5080719;28;24572;-44
2022/05/12 07:16:22;;;;;;;2.90;1.60;;;;;;;;;;5086846;28;24473;-45
2022/05/12 07:18:48;;;;;;;1.40;1.30;;;;;;;;;;5085271;28;24430;-45
2022/05/12 07:26:42;;;;;;;1.63;1.30;;;;;;;;;;5086632;28;24765;-45
2022/05/12 07:29:11;;;;;;;2.50;1.20;;;;;;;;;;5086842;28;24693;-45
2022/05/12 07:31:37;;;;;;;4.17;1.40;;;;;;;;;;5086964;28;24787;-45
2022/05/12 07:34:03;;;;;;;1.83;1.63;;;;;;;;;;5084913;28;24990;-45
2022/05/12 07:36:29;;;;;;;1.60;1.50;;;;;;;;;;5086149;28;24517;-44
2022/05/12 07:38:56;;;;;;;3.80;1.60;;;;;;;;;;5086874;28;24409;-44
2022/05/12 07:41:22;;;;;;;3.65;1.45;;;;;;;;;;5086925;28;24508;-45
2022/05/12 07:43:47;;;;;;;1.90;1.40;;;;;;;;;;5085598;28;24426;-45
2022/05/12 07:46:14;;;;;;;1.60;1.17;;;;;;;;;;5086824;28;24410;-44
2022/05/12 07:48:39;;;;;;;3.53;1.42;;;;;;;;;;5086581;28;24406;-45
2022/05/12 07:51:04;;;;;;;1.65;1.38;;;;;;;;;;5086813;28;24996;-44
2022/05/12 07:53:30;;;;;;;4.00;1.50;;;;;;;;;;5085715;28;24437;-44
2022/05/12 07:55:55;;;;;;;3.17;1.50;;;;;;;;;;5086723;28;24437;-45
2022/05/12 07:58:20;;;;;;;2.53;1.30;;;;;;;;;;5083737;28;24964;-45
2022/05/12 08:00:46;;;;;;;2.70;1.40;;;;;;;;;;5091117;28;24397;-45
2022/05/12 08:03:11;;;;;;;4.00;1.30;;;;;;;;;;5091547;28;24396;-44
2022/05/12 08:05:36;;;;;;;3.50;1.40;;;;;;;;;;5092898;28;24463;-44
2022/05/12 08:08:03;;;;;;;3.90;1.40;;;;;;;;;;5093130;28;24473;-44
2022/05/12 08:10:28;;;;;;;2.30;1.40;;;;;;;;;;5092832;28;24386;-45
2022/05/12 08:12:54;;;;;;;5.50;1.40;;;;;;;;;;5093417;28;24476;-44
2022/05/12 08:15:19;;;;;;;3.55;1.30;;;;;;;;;;5091346;28;24425;-44
2022/05/12 08:17:44;;;;;;;3.63;1.60;;;;;;;;;;5090906;28;24405;-45
2022/05/12 08:20:11;;;;;;;2.55;1.45;;;;;;;;;;5093586;28;24389;-45
2022/05/12 08:22:37;;;;;;;4.20;1.40;;;;;;;;;;5093078;28;24707;-45
2022/05/12 08:25:04;;;;;;;1.33;1.23;;;;;;;;;;5091517;28;24422;-45
2022/05/12 08:27:29;;;;;;;4.23;1.60;;;;;;;;;;5092930;28;24489;-45
2022/05/12 08:29:54;;;;;;;4.67;1.60;;;;;;;;;;5092882;28;24508;-45
2022/05/12 08:32:19;;;;;;;1.80;1.40;;;;;;;;;;5092989;28;24390;-45
2022/05/12 08:34:45;;;;;;;4.70;1.52;;;;;;;;;;5090736;28;25455;-45
2022/05/12 08:37:10;;;;;;;2.57;1.50;;;;;;;;;;5093180;28;24448;-45
2022/05/12 08:39:36;;;;;;;5.00;1.70;;;;;;;;;;5092783;28;24386;-45
2022/05/12 08:42:05;;;;;;;1.30;1.20;;;;;;;;;;5092451;28;25218;-45
2022/05/12 08:44:34;;;;;;;3.33;1.60;;;;;;;;;;5093010;28;24417;-45
2022/05/12 08:47:02;;;;;;;4.05;1.85;;;;;;;;;;5090293;28;24441;-45
2022/05/12 08:49:38;;;;;;;2.95;1.40;;;;;;;;;;5092742;28;24434;-44
2022/05/12 08:52:15;;;;;;;4.53;1.80;;;;;;;;;;5092543;28;24971;-45
2022/05/12 08:54:43;;;;;;;1.90;1.40;;;;;;;;;;5092566;28;24471;-44
2022/05/12 08:57:16;;;;;;;3.25;1.40;;;;;;;;;;5092236;28;24418;-44
2022/05/12 08:59:41;;;;;;;1.60;1.50;;;;;;;;;;5090963;28;24460;-44
2022/05/12 09:02:19;;;;;;;1.85;1.40;;;;;;;;;;5093216;28;24448;-44
2022/05/12 09:04:48;;;;;;;2.07;1.40;;;;;;;;;;5092728;28;24461;-44
2022/05/12 09:07:16;;;;;;;1.93;1.40;;;;;;;;;;5090657;28;24530;-45
2022/05/12 09:10:08;;;;;;;2.72;1.73;;;;;;;;;;5092203;28;24912;-45
2022/05/12 09:12:51;;;;;;;2.47;1.60;;;;;;;;;;5058867;28;24451;-45
2022/05/12 09:15:22;;;;;;;3.80;1.70;;;;;;;;;;5089355;28;24485;-44
2022/05/12 09:17:51;;;;;;;3.20;1.67;;;;;;;;;;5087646;28;24425;-44
2022/05/12 09:20:18;;;;;;;3.63;1.45;;;;;;;;;;5071521;28;24908;-45
2022/05/12 09:22:44;;;;;;;2.27;1.50;;;;;;;;;;5067202;28;24398;-44
2022/05/12 09:25:10;;;;;;;1.73;1.30;;;;;;;;;;5069080;28;24749;-44
2022/05/12 09:27:36;;;;;;;1.90;1.60;;;;;;;;;;5082509;28;24430;-45
2022/05/12 09:30:04;;;;;;;4.15;1.60;;;;;;;;;;5088877;28;24425;-44
2022/05/12 09:32:31;;;;;;;2.60;1.40;;;;;;;;;;5088764;28;24444;-45
2022/05/12 09:35:05;;;;;;;2.20;1.70;;;;;;;;;;5076421;28;24501;-44
2022/05/12 09:37:31;;;;;;;1.70;1.40;;;;;;;;;;5089455;28;24400;-45
2022/05/12 09:40:16;;;;;;;5.00;2.00;;;;;;;;;;5085795;28;24773;-45
2022/05/12 09:42:44;;;;;;;2.90;1.60;;;;;;;;;;5072460;28;24935;-45
2022/05/12 09:45:15;;;;;;;2.65;1.60;;;;;;;;;;5089281;28;24386;-45
2022/05/12 09:47:41;;;;;;;3.13;1.50;;;;;;;;;;5080741;28;25017;-45
2022/05/12 09:50:16;;;;;;;3.50;1.63;;;;;;;;;;5079157;28;24456;-45
2022/05/12 09:52:42;;;;;;;3.65;1.63;;;;;;;;;;5088425;28;24401;-45
2022/05/12 09:55:13;;;;;;;2.30;1.13;;;;;;;;;;5087676;28;24437;-45
2022/05/12 09:57:52;;;;;;;2.25;1.40;;;;;;;;;;5088842;28;24456;-45
2022/05/12 10:00:26;;;;;;;3.25;1.45;;;;;;;;;;5086982;28;24487;-45
2022/05/12 10:08:39;;;;;;;2.63;1.10;;;;;;;;;;5072660;28;24429;-45
2022/05/12 10:11:06;;;;;;;2.20;1.17;;;;;;;;;;5085409;28;24419;-44
2022/05/12 10:13:31;;;;;;;1.80;1.50;;;;;;;;;;5087831;28;24434;-44
2022/05/12 10:15:58;;;;;;;2.80;1.50;;;;;;;;;;5088537;28;24495;-44
2022/05/12 10:18:45;;;;;;;3.35;1.40;;;;;;;;;;5087769;28;24634;-44
2022/05/12 10:21:20;;;;;;;3.13;1.35;;;;;;;;;;5086669;28;24472;-44
2022/05/12 10:23:45;;;;;;;2.53;1.70;;;;;;;;;;5086087;28;24422;-45
2022/05/12 10:26:14;;;;;;;2.70;1.80;;;;;;;;;;5087733;28;24413;-44
2022/05/12 10:28:50;;;;;;;3.00;1.70;;;;;;;;;;5087238;28;24828;-45
2022/05/12 10:31:16;;;;;;;1.50;1.40;;;;;;;;;;5087676;28;24793;-44
2022/05/12 10:33:52;;;;;;;2.50;1.70;;;;;;;;;;5087423;28;24862;-45
2022/05/12 10:36:33;;;;;;;5.32;3.35;;;;;;;;;;5088369;28;24740;-44
2022/05/12 10:38:58;;;;;;;2.33;1.40;;;;;;;;;;5085760;28;24494;-45
2022/05/12 10:41:38;;;;;;;2.20;1.40;;;;;;;;;;5087777;28;24474;-45
2022/05/12 10:44:03;;;;;;;4.53;1.80;;;;;;;;;;5088015;28;24838;-45
2022/05/12 10:46:36;;;;;;;4.40;2.90;;;;;;;;;;5087445;28;25116;-45
2022/05/12 10:49:14;;;;;;;2.40;1.50;;;;;;;;;;5085767;28;24430;-45
2022/05/12 10:51:39;;;;;;;2.33;1.60;;;;;;;;;;5087344;28;24398;-46
2022/05/12 10:54:10;;;;;;;2.20;1.50;;;;;;;;;;5087729;28;24467;-45
2022/05/12 10:56:40;;;;;;;1.70;1.60;;;;;;;;;;5087102;28;24820;-45
2022/05/12 10:59:21;;;;;;;1.90;1.40;;;;;;;;;;5084704;28;24436;-45
2022/05/12 11:01:49;;;;;;;3.30;1.60;;;;;;;;;;5087594;28;24402;-45
2022/05/12 11:04:18;;;;;;;4.35;1.70;;;;;;;;;;5087559;28;24810;-45
2022/05/12 11:06:43;;;;;;;2.10;1.50;;;;;;;;;;5084409;28;24434;-45
2022/05/12 11:09:25;;;;;;;1.90;1.60;;;;;;;;;;5084892;28;24422;-45
2022/05/12 11:11:52;;;;;;;2.10;1.50;;;;;;;;;;5087206;28;24477;-43
2022/05/12 11:14:31;;;;;;;2.20;1.20;;;;;;;;;;5086722;28;24504;-46
2022/05/12 11:17:08;;;;;;;1.70;1.60;;;;;;;;;;5087114;28;24390;-46
2022/05/12 11:19:33;;;;;;;1.90;1.67;;;;;;;;;;5086293;28;24998;-46
2022/05/12 11:22:10;;;;;;;2.20;1.67;;;;;;;;;;5087015;28;24501;-45
2022/05/12 11:24:41;;;;;;;2.17;1.80;;;;;;;;;;5085318;28;24418;-45
2022/05/12 11:27:22;;;;;;;2.00;1.60;;;;;;;;;;5087416;28;24944;-45
2022/05/12 11:29:54;;;;;;;2.90;1.70;;;;;;;;;;5086672;28;24414;-45
2022/05/12 11:32:37;;;;;;;1.88;1.60;;;;;;;;;;5086869;28;24480;-45
2022/05/12 11:35:11;;;;;;;1.75;1.60;;;;;;;;;;5085985;28;24418;-45
2022/05/12 11:37:36;;;;;;;1.80;1.70;;;;;;;;;;5085597;28;24502;-45
2022/05/12 11:40:11;;;;;;;3.08;2.10;;;;;;;;;;5074235;28;24522;-45
2022/05/12 11:45:42;;;;;;;1.93;1.70;;;;;;;;;;5079645;28;24458;-45
2022/05/12 11:48:17;;;;;;;1.80;1.70;;;;;;;;;;5086560;28;25041;-45
2022/05/12 11:50:50;;;;;;;2.08;1.70;;;;;;;;;;5065695;28;24497;-45
2022/05/12 11:53:18;;;;;;;2.72;1.77;;;;;;;;;;5066458;28;24472;-45
2022/05/12 11:55:55;;;;;;;2.77;1.73;;;;;;;;;;5066174;28;24398;-45
2022/05/12 11:58:34;;;;;;;2.17;1.67;;;;;;;;;;5072188;28;24390;-45
2022/05/12 12:01:03;;;;;;;1.40;1.30;;;;;;;;;;5086506;28;24489;-45
2022/05/12 12:03:28;;;;;;;1.70;1.60;;;;;;;;;;5086615;28;25016;-45
2022/05/12 12:05:56;;;;;;;2.00;1.80;;;;;;;;;;5083061;28;25329;-45
2022/05/12 12:08:30;;;;;;;1.80;1.70;;;;;;;;;;5084794;28;24413;-45
2022/05/12 12:11:14;;;;;;;1.90;1.40;;;;;;;;;;5089018;28;24418;-45
2022/05/12 12:13:43;;;;;;;2.40;1.70;;;;;;;;;;5098987;28;24452;-45
2022/05/12 12:16:08;;;;;;;2.22;1.60;;;;;;;;;;5091714;28;24409;-45
2022/05/12 12:18:33;;;;;;;1.63;1.53;;;;;;;;;;5086080;28;24981;-45
2022/05/12 12:20:59;;;;;;;3.97;1.90;;;;;;;;;;5086317;28;24925;-45
2022/05/12 12:23:27;;;;;;;3.45;1.73;;;;;;;;;;5098908;28;24417;-45
2022/05/12 12:25:58;;;;;;;5.00;2.20;;;;;;;;;;5087267;28;24415;-45
2022/05/12 12:28:36;;;;;;;2.30;1.70;;;;;;;;;;5081569;28;24749;-45
2022/05/12 12:31:06;;;;;;;3.92;1.80;;;;;;;;;;5085764;28;24430;-45
2022/05/12 12:33:35;;;;;;;2.33;1.40;;;;;;;;;;5084970;28;24480;-44
2022/05/12 12:36:02;;;;;;;1.90;1.67;;;;;;;;;;5084046;28;24777;-44
2022/05/12 12:38:41;;;;;;;7.53;1.80;;;;;;;;;;5075346;28;24491;-45
2022/05/12 12:41:08;;;;;;;2.43;1.80;;;;;;;;;;5068215;28;24433;-45
2022/05/12 12:43:38;;;;;;;3.40;1.30;;;;;;;;;;5085502;28;24987;-45
2022/05/12 12:46:15;;;;;;;1.55;1.10;;;;;;;;;;5086991;28;24436;-45
2022/05/12 12:48:45;;;;;;;2.40;1.37;;;;;;;;;;5089090;28;24943;-45
2022/05/12 12:51:10;;;;;;;1.80;1.52;;;;;;;;;;5084212;28;24433;-45
2022/05/12 12:56:31;;;;;;;1.80;1.50;;;;;;;;;;5089937;28;24410;-45
2022/05/12 12:58:57;;;;;;;2.10;1.50;;;;;;;;;;5089072;28;24432;-44
2022/05/12 13:01:35;;;;;;;2.63;1.40;;;;;;;;;;5088249;28;24430;-45
2022/05/12 13:04:00;;;;;;;2.90;1.77;;;;;;;;;;5088313;28;24830;-45
2022/05/12 13:06:28;;;;;;;3.50;1.38;;;;;;;;;;5087919;28;24510;-45
2022/05/12 13:09:01;;;;;;;2.30;1.40;;;;;;;;;;5088389;28;24421;-45
2022/05/12 13:11:27;;;;;;;3.10;1.40;;;;;;;;;;5086909;28;24552;-45
2022/05/12 13:13:53;;;;;;;2.00;1.60;;;;;;;;;;5088543;28;24522;-45
2022/05/12 13:16:25;;;;;;;2.10;1.60;;;;;;;;;;5089719;28;24405;-45
2022/05/12 13:18:52;;;;;;;3.60;1.80;;;;;;;;;;5088569;28;24461;-45
2022/05/12 13:21:26;;;;;;;2.70;1.50;;;;;;;;;;5088329;28;25031;-45
2022/05/12 13:24:09;;;;;;;3.03;1.67;;;;;;;;;;5087038;28;24434;-45
2022/05/12 13:26:36;;;;;;;2.10;1.30;;;;;;;;;;5089268;28;24414;-45
2022/05/12 13:29:04;;;;;;;2.35;1.33;;;;;;;;;;5088699;28;24806;-45
2022/05/12 13:31:36;;;;;;;1.33;1.15;;;;;;;;;;5088715;28;24796;-45
2022/05/12 13:34:11;;;;;;;2.25;1.45;;;;;;;;;;5088673;28;24417;-46
2022/05/12 13:36:47;;;;;;;2.85;1.42;;;;;;;;;;5083176;28;24975;-45
2022/05/12 13:39:13;;;;;;;1.98;1.50;;;;;;;;;;5080504;28;24776;-45
2022/05/12 13:41:46;;;;;;;2.45;1.33;;;;;;;;;;5087718;28;25006;-45
2022/05/12 13:44:24;;;;;;;2.75;1.50;;;;;;;;;;5086332;28;24427;-45
2022/05/12 13:46:51;;;;;;;1.77;1.50;;;;;;;;;;5086955;28;24426;-46
2022/05/12 13:49:25;;;;;;;1.60;1.30;;;;;;;;;;5088011;28;24465;-44
2022/05/12 13:51:52;;;;;;;2.43;1.30;;;;;;;;;;5087339;28;24434;-45
2022/05/12 13:54:22;;;;;;;2.30;1.58;;;;;;;;;;5087727;28;24430;-45
2022/05/12 13:56:48;;;;;;;2.53;1.40;;;;;;;;;;5086820;28;24444;-44
2022/05/12 13:59:19;;;;;;;1.65;1.55;;;;;;;;;;5086835;28;24418;-45
2022/05/12 14:01:46;;;;;;;2.78;1.40;;;;;;;;;;5088331;28;24872;-45
2022/05/12 14:04:11;;;;;;;2.97;1.40;;;;;;;;;;5087402;28;24513;-46
2022/05/12 14:06:41;;;;;;;2.73;1.50;;;;;;;;;;5086851;28;24509;-45
2022/05/12 14:09:12;;;;;;;2.10;1.30;;;;;;;;;;5085295;28;24773;-45
2022/05/12 14:11:37;;;;;;;4.50;3.47;;;;;;;;;;5084797;28;24457;-45
2022/05/12 14:19:36;;;;;;;1.73;1.58;;;;;;;;;;5085910;28;24451;-45
2022/05/12 14:22:07;;;;;;;3.30;1.60;;;;;;;;;;5082888;28;24449;-45
2022/05/12 14:24:32;;;;;;;2.30;1.40;;;;;;;;;;5077894;28;24414;-45
2022/05/12 14:26:58;;;;;;;1.80;1.40;;;;;;;;;;5082753;28;24433;-45
2022/05/12 14:29:23;;;;;;;2.67;1.90;;;;;;;;;;5082088;28;24425;-45
2022/05/12 14:31:50;;;;;;;2.40;1.63;;;;;;;;;;5080762;28;24446;-45
2022/05/12 14:34:18;;;;;;;2.20;1.70;;;;;;;;;;5081382;28;25061;-45
2022/05/12 14:36:43;;;;;;;1.70;1.60;;;;;;;;;;5079061;28;24533;-45
2022/05/12 14:39:08;;;;;;;1.60;1.40;;;;;;;;;;5080458;28;24439;-46
2022/05/12 14:41:33;;;;;;;2.75;1.80;;;;;;;;;;5085191;28;24414;-45
2022/05/12 14:43:59;;;;;;;2.60;1.50;;;;;;;;;;5078222;28;24769;-45
2022/05/12 14:46:25;;;;;;;2.27;1.33;;;;;;;;;;5082939;28;24433;-45
2022/05/12 14:48:52;;;;;;;1.80;1.50;;;;;;;;;;5084701;28;24426;-45
2022/05/12 14:51:18;;;;;;;2.00;1.50;;;;;;;;;;5082900;28;24521;-45
2022/05/12 14:53:43;;;;;;;2.30;1.60;;;;;;;;;;5080775;28;24518;-45
2022/05/12 14:56:08;;;;;;;1.70;1.60;;;;;;;;;;5084306;28;24468;-46
2022/05/12 14:58:33;;;;;;;1.80;1.40;;;;;;;;;;5081092;28;25038;-46
2022/05/12 15:00:59;;;;;;;2.85;1.48;;;;;;;;;;5075101;28;24960;-45
2022/05/12 15:03:25;;;;;;;2.70;1.40;;;;;;;;;;5077700;28;24905;-44
2022/05/12 15:05:50;;;;;;;1.55;1.40;;;;;;;;;;5081547;28;24484;-45
2022/05/12 15:08:15;;;;;;;2.70;1.50;;;;;;;;;;5080111;28;24460;-45
2022/05/12 15:10:40;;;;;;;2.53;1.40;;;;;;;;;;5085197;28;24416;-45
2022/05/12 15:13:05;;;;;;;2.23;1.50;;;;;;;;;;5085243;28;24498;-45
2022/05/12 15:15:31;;;;;;;1.50;1.40;;;;;;;;;;5082677;28;24509;-45